createdAt,value
2023-02-21T00:02:40.227Z,92.07
2023-02-21T00:05:26.013Z,91.92
2023-02-21T00:08:11.587Z,92.20
2023-02-21T00:10:56.874Z,90.75
2023-02-21T00:13:42.093Z,91.90
2023-02-21T00:16:27.346Z,92.04
2023-02-21T00:19:12.773Z,90.81
2023-02-21T00:21:58.011Z,90.83
2023-02-21T00:24:43.127Z,90.83
2023-02-21T00:27:28.249Z,90.04
2023-02-21T00:30:13.496Z,89.17
2023-02-21T00:32:59.158Z,89.59
2023-02-21T00:35:44.689Z,90.53
2023-02-21T00:38:29.926Z,90.04
2023-02-21T00:41:15.459Z,89.68
2023-02-21T00:44:00.987Z,90.03
2023-02-21T00:46:46.028Z,90.51
2023-02-21T00:49:31.286Z,90.47
2023-02-21T00:52:16.548Z,90.69
2023-02-21T00:55:01.709Z,90.59
2023-02-21T00:57:47.052Z,90.43
2023-02-21T01:00:37.788Z,90.64
2023-02-21T01:03:23.507Z,90.98
2023-02-21T01:06:09.329Z,91.27
2023-02-21T01:08:54.448Z,91.09
2023-02-21T01:11:40.635Z,90.63
2023-02-21T01:14:28.233Z,90.74
2023-02-21T01:17:13.993Z,91.84
2023-02-21T01:20:00.539Z,91.59
2023-02-21T01:22:46.492Z,90.78
2023-02-21T01:25:31.772Z,91.13
2023-02-21T01:28:17.153Z,89.73
2023-02-21T01:31:02.378Z,90.29
2023-02-21T01:33:47.938Z,90.36
2023-02-21T01:36:33.034Z,91.16
2023-02-21T01:39:18.510Z,89.79
2023-02-21T01:42:03.675Z,90.14
2023-02-21T01:45:34.131Z,91.40
2023-02-21T01:48:19.673Z,90.66
2023-02-21T01:51:04.878Z,90.78
2023-02-21T01:53:50.092Z,90.36
2023-02-21T01:56:35.285Z,90.38
2023-02-21T01:59:21.094Z,91.11
2023-02-21T02:02:09.492Z,90.04
2023-02-21T02:04:54.669Z,90.43
2023-02-21T02:07:40.116Z,90.82
2023-02-21T02:10:25.831Z,89.55
2023-02-21T02:13:33.630Z,90.94
2023-02-21T02:16:06.465Z,90.14
2023-02-21T02:18:46.462Z,91.39
2023-02-21T02:21:43.034Z,90.78
2023-02-21T02:24:18.890Z,91.48
2023-02-21T02:27:10.332Z,91.53
2023-02-21T02:30:15.025Z,91.04
2023-02-21T02:33:09.949Z,91.93
2023-02-21T02:35:55.792Z,90.48
2023-02-21T02:38:28.473Z,91.12
2023-02-21T02:41:18.374Z,90.49
2023-02-21T02:43:52.052Z,90.37
2023-02-21T02:46:28.308Z,90.85
2023-02-21T02:49:02.905Z,91.91
2023-02-21T02:51:29.757Z,92.21
2023-02-21T02:53:56.613Z,91.37
2023-02-21T02:56:28.908Z,91.10
2023-02-21T02:59:14.747Z,91.96
2023-02-21T03:02:11.746Z,91.34
2023-02-21T03:04:57.272Z,91.50
2023-02-21T03:07:42.688Z,92.24
2023-02-21T03:10:30.043Z,90.86
2023-02-21T03:13:21.711Z,91.25
2023-02-21T03:15:59.519Z,90.79
2023-02-21T03:18:32.054Z,90.16
2023-02-21T03:21:00.093Z,91.84
2023-02-21T03:23:31.184Z,91.35
2023-02-21T03:25:59.985Z,90.95
2023-02-21T03:28:26.874Z,91.47
2023-02-21T03:30:54.444Z,91.23
2023-02-21T03:33:21.284Z,91.23
2023-02-21T03:35:48.550Z,90.80
2023-02-21T03:38:15.453Z,91.26
2023-02-21T03:40:42.327Z,90.25
2023-02-21T03:43:09.188Z,89.42
2023-02-21T03:45:36.455Z,90.14
2023-02-21T03:48:03.463Z,89.72
2023-02-21T03:50:30.348Z,89.87
2023-02-21T03:52:57.208Z,89.42
2023-02-21T03:55:24.070Z,89.09
2023-02-21T03:57:51.006Z,88.81
2023-02-21T04:00:18.092Z,88.34
2023-02-21T04:02:44.948Z,88.53
2023-02-21T04:05:11.905Z,89.28
2023-02-21T04:07:38.833Z,90.26
2023-02-21T04:10:06.087Z,89.71
2023-02-21T04:12:33.033Z,89.76
2023-02-21T04:14:59.891Z,90.23
2023-02-21T04:17:27.169Z,89.93
2023-02-21T04:19:53.969Z,88.78
2023-02-21T04:22:20.834Z,89.44
2023-02-21T04:24:48.494Z,88.81
2023-02-21T04:27:15.934Z,89.71
2023-02-21T04:29:42.795Z,89.61
2023-02-21T04:32:11.043Z,90.02
2023-02-21T04:34:38.057Z,89.32
2023-02-21T04:37:05.018Z,90.28
2023-02-21T04:39:31.940Z,90.20
2023-02-21T04:41:58.951Z,90.24
2023-02-21T04:44:25.838Z,90.14
2023-02-21T04:46:52.721Z,90.11
2023-02-21T04:49:19.574Z,89.91
2023-02-21T04:51:46.457Z,89.41
2023-02-21T04:54:14.151Z,89.44
2023-02-21T04:56:41.126Z,90.29
2023-02-21T04:59:08.031Z,90.24
2023-02-21T05:01:34.963Z,90.21
2023-02-21T05:04:02.007Z,90.50
2023-02-21T05:06:29.633Z,90.20
2023-02-21T05:08:56.672Z,89.84
2023-02-21T05:11:23.789Z,90.12
2023-02-21T05:13:50.732Z,90.49
2023-02-21T05:16:17.786Z,90.46
2023-02-21T05:18:45.753Z,90.44
2023-02-21T05:21:13.242Z,90.30
2023-02-21T05:23:41.083Z,89.91
2023-02-21T05:26:12.892Z,89.60
2023-02-21T05:28:40.347Z,90.12
2023-02-21T05:31:07.428Z,90.42
2023-02-21T05:33:34.465Z,90.08
2023-02-21T05:36:01.352Z,90.07
2023-02-21T05:38:28.308Z,90.85
2023-02-21T05:40:55.168Z,90.24
2023-02-21T05:43:21.993Z,90.76
2023-02-21T05:45:48.918Z,90.94
2023-02-21T05:48:15.903Z,90.69
2023-02-21T05:50:42.942Z,91.23
2023-02-21T05:53:10.573Z,91.61
2023-02-21T05:55:37.792Z,92.65
2023-02-21T05:58:04.857Z,92.74
2023-02-21T06:00:31.804Z,93.14
2023-02-21T06:02:58.679Z,92.89
2023-02-21T06:05:25.672Z,92.86
2023-02-21T06:07:52.619Z,93.33
2023-02-21T06:10:19.964Z,93.97
2023-02-21T06:12:47.155Z,93.22
2023-02-21T06:15:14.134Z,93.27
2023-02-21T06:17:41.222Z,92.66
2023-02-21T06:20:08.925Z,93.48
2023-02-21T06:22:35.767Z,92.18
2023-02-21T06:25:02.673Z,92.94
2023-02-21T06:27:29.543Z,91.94
2023-02-21T06:29:56.385Z,91.40
2023-02-21T06:32:23.249Z,91.25
2023-02-21T06:34:50.087Z,91.09
2023-02-21T06:37:18.529Z,89.70
2023-02-21T06:39:45.686Z,91.53
2023-02-21T06:42:15.854Z,89.77
2023-02-21T06:44:46.351Z,90.96
2023-02-21T06:47:13.274Z,90.87
2023-02-21T06:49:40.134Z,92.04
2023-02-21T06:52:07.070Z,91.41
2023-02-21T06:54:33.978Z,90.90
2023-02-21T06:57:01.941Z,90.99
2023-02-21T06:59:29.373Z,90.60
2023-02-21T07:01:56.646Z,91.56
2023-02-21T07:04:23.998Z,92.25
2023-02-21T07:06:51.011Z,91.73
2023-02-21T07:09:17.935Z,91.50
2023-02-21T07:11:46.978Z,91.27
2023-02-21T07:14:14.739Z,90.36
2023-02-21T07:16:41.604Z,90.09
2023-02-21T07:19:08.675Z,90.33
2023-02-21T07:21:35.544Z,90.32
2023-02-21T07:24:02.394Z,90.54
2023-02-21T07:26:29.259Z,90.33
2023-02-21T07:28:56.121Z,91.00
2023-02-21T07:31:23.430Z,90.60
2023-02-21T07:33:50.392Z,91.16
2023-02-21T07:36:17.312Z,89.48
2023-02-21T07:38:44.192Z,90.76
2023-02-21T07:41:11.074Z,89.68
2023-02-21T07:43:39.397Z,89.69
2023-02-21T07:46:13.217Z,88.86
2023-02-21T07:48:40.150Z,89.75
2023-02-21T07:51:07.833Z,88.56
2023-02-21T07:53:35.019Z,88.68
2023-02-21T07:56:02.551Z,88.51
2023-02-21T07:58:29.497Z,87.40
2023-02-21T08:00:56.310Z,87.79
2023-02-21T08:03:23.474Z,86.61
2023-02-21T08:05:50.411Z,85.62
2023-02-21T08:08:17.454Z,85.17
2023-02-21T08:10:44.356Z,83.74
2023-02-21T08:13:11.295Z,82.33
2023-02-21T08:15:38.166Z,80.61
2023-02-21T08:18:05.174Z,78.15
2023-02-21T08:20:32.167Z,78.82
2023-02-21T08:22:59.056Z,78.27
2023-02-21T08:25:25.948Z,77.11
2023-02-21T08:27:55.420Z,77.78
2023-02-21T08:30:22.568Z,77.50
2023-02-21T08:32:51.338Z,77.41
2023-02-21T08:35:19.412Z,78.46
2023-02-21T08:37:47.205Z,78.93
2023-02-21T08:40:14.545Z,78.96
2023-02-21T08:42:41.783Z,79.48
2023-02-21T08:45:10.926Z,80.29
2023-02-21T08:47:37.872Z,80.07
2023-02-21T08:50:05.207Z,80.75
2023-02-21T08:52:32.066Z,80.15
2023-02-21T08:54:58.883Z,80.39
2023-02-21T08:57:25.750Z,80.34
2023-02-21T08:59:52.810Z,80.40
2023-02-21T09:02:28.911Z,81.03
2023-02-21T09:04:55.830Z,81.73
2023-02-21T09:07:22.948Z,81.45
2023-02-21T09:09:49.906Z,82.23
2023-02-21T09:12:16.898Z,82.21
2023-02-21T09:14:44.327Z,83.24
2023-02-21T09:17:12.941Z,83.19
2023-02-21T09:19:39.916Z,82.32
2023-02-21T09:22:10.014Z,82.73
2023-02-21T09:24:37.119Z,82.99
2023-02-21T09:27:04.251Z,82.50
2023-02-21T09:29:45.028Z,82.50
2023-02-21T09:32:13.136Z,83.32
2023-02-21T09:34:40.110Z,82.49
2023-02-21T09:37:07.176Z,83.33
2023-02-21T09:39:34.089Z,83.63
2023-02-21T09:42:00.929Z,83.66
2023-02-21T09:44:28.759Z,82.71
2023-02-21T09:47:03.234Z,82.25
2023-02-21T09:49:36.176Z,82.95
2023-02-21T09:52:03.125Z,82.64
2023-02-21T09:54:38.853Z,83.64
2023-02-21T09:57:09.888Z,82.96
2023-02-21T09:59:36.755Z,83.67
2023-02-21T10:02:35.841Z,83.27
2023-02-21T10:05:28.169Z,84.53
2023-02-21T10:08:22.746Z,84.58
2023-02-21T10:11:02.387Z,85.18
2023-02-21T10:13:40.473Z,85.05
2023-02-21T10:16:17.953Z,84.18
2023-02-21T10:18:59.468Z,84.84
2023-02-21T10:21:32.025Z,83.48
2023-02-21T10:24:04.763Z,83.49
2023-02-21T10:26:34.749Z,82.92
2023-02-21T10:29:01.643Z,83.05
2023-02-21T10:31:36.515Z,82.37
2023-02-21T10:34:07.874Z,82.39
2023-02-21T10:36:34.941Z,82.46
2023-02-21T10:39:10.209Z,82.14
2023-02-21T10:41:39.194Z,81.80
2023-02-21T10:44:19.167Z,82.14
2023-02-21T10:47:08.324Z,82.30
2023-02-21T10:49:37.266Z,82.55
2023-02-21T10:52:06.826Z,80.78
2023-02-21T10:54:35.346Z,81.53
2023-02-21T10:57:03.693Z,82.37
2023-02-21T10:59:32.448Z,82.13
2023-02-21T11:01:59.309Z,82.13
2023-02-21T11:04:35.666Z,81.86
2023-02-21T11:07:09.055Z,80.50
2023-02-21T11:09:51.227Z,79.79
2023-02-21T11:12:20.776Z,80.11
2023-02-21T11:14:53.568Z,80.07
2023-02-21T11:17:23.530Z,80.57
2023-02-21T11:19:55.344Z,81.45
2023-02-21T11:22:26.827Z,80.69
2023-02-21T11:25:05.561Z,80.65
2023-02-21T11:27:35.405Z,80.44
2023-02-21T11:30:04.907Z,80.26
2023-02-21T11:32:34.865Z,80.50
2023-02-21T11:35:21.396Z,80.68
2023-02-21T11:37:53.208Z,80.53
2023-02-21T11:40:27.113Z,80.75
2023-02-21T11:43:16.810Z,80.19
2023-02-21T11:46:05.719Z,80.43
2023-02-21T11:49:00.285Z,80.45
2023-02-21T11:51:33.334Z,80.80
2023-02-21T11:54:00.232Z,81.38
2023-02-21T11:56:36.656Z,81.75
2023-02-21T11:59:28.255Z,78.67
2023-02-21T12:02:13.607Z,77.01
2023-02-21T12:04:58.786Z,77.09
2023-02-21T12:07:37.505Z,73.71
2023-02-21T12:10:22.528Z,70.49
2023-02-21T12:13:15.308Z,76.42
2023-02-21T12:15:57.532Z,68.71
2023-02-21T12:18:53.009Z,64.60
2023-02-21T12:21:34.733Z,63.76
2023-02-21T12:24:20.216Z,60.78
2023-02-21T12:26:46.972Z,57.63
2023-02-21T12:29:25.965Z,53.38
2023-02-21T12:32:00.376Z,51.06
2023-02-21T12:35:11.631Z,47.23
2023-02-21T12:38:19.993Z,44.67
2023-02-21T12:41:23.606Z,42.42
2023-02-21T12:44:10.632Z,40.26
2023-02-21T12:46:46.354Z,39.26
2023-02-21T12:49:33.554Z,39.66
2023-02-21T12:52:04.738Z,40.41
2023-02-21T12:54:44.692Z,40.93
2023-02-21T12:57:19.693Z,40.87
2023-02-21T12:59:54.563Z,40.68
2023-02-21T13:02:45.292Z,41.77
2023-02-21T13:05:15.791Z,41.40
2023-02-21T13:07:50.256Z,40.67
2023-02-21T13:10:28.518Z,41.61
2023-02-21T13:13:05.688Z,42.66
2023-02-21T13:15:32.508Z,43.84
2023-02-21T13:18:05.250Z,43.84
2023-02-21T13:20:40.548Z,45.48
2023-02-21T13:24:03.713Z,48.35
2023-02-21T13:26:50.506Z,50.46
2023-02-21T13:29:23.218Z,52.65
2023-02-21T13:31:57.331Z,55.01
2023-02-21T13:34:26.388Z,56.84
2023-02-21T13:36:53.267Z,58.34
2023-02-21T13:39:32.178Z,60.05
2023-02-21T13:42:25.588Z,62.45
2023-02-21T13:45:14.228Z,65.31
2023-02-21T13:48:06.858Z,66.05
2023-02-21T13:50:39.907Z,67.25
2023-02-21T13:53:09.594Z,67.28
2023-02-21T13:55:37.239Z,68.22
2023-02-21T13:58:05.480Z,69.45
2023-02-21T14:00:32.280Z,71.59
2023-02-21T14:03:09.038Z,72.38
2023-02-21T14:05:53.728Z,73.22
2023-02-21T14:08:26.559Z,74.87
2023-02-21T14:10:55.318Z,75.21
2023-02-21T14:13:37.856Z,75.39
2023-02-21T14:16:07.698Z,76.01
2023-02-21T14:18:40.467Z,76.29
2023-02-21T14:21:12.746Z,76.67
2023-02-21T14:23:46.892Z,77.66
2023-02-21T14:26:41.369Z,77.92
2023-02-21T14:29:08.115Z,78.83
2023-02-21T14:32:04.160Z,78.48
2023-02-21T14:34:31.008Z,79.59
2023-02-21T14:37:00.235Z,80.55
2023-02-21T14:39:34.990Z,80.27
2023-02-21T14:42:20.350Z,81.10
2023-02-21T14:45:12.053Z,81.10
2023-02-21T14:48:16.285Z,81.87
2023-02-21T14:51:09.032Z,82.03
2023-02-21T14:53:54.350Z,82.24
2023-02-21T14:56:26.979Z,83.40
2023-02-21T14:59:24.321Z,83.60
2023-02-21T15:02:12.550Z,84.91
2023-02-21T15:04:46.112Z,86.11
2023-02-21T15:07:18.935Z,86.92
2023-02-21T15:09:53.011Z,87.27
2023-02-21T15:12:19.877Z,87.61
2023-02-21T15:14:52.859Z,88.04
2023-02-21T15:17:22.016Z,88.12
2023-02-21T15:19:49.020Z,87.49
2023-02-21T15:22:25.771Z,87.89
2023-02-21T15:25:08.010Z,88.53
2023-02-21T15:27:51.018Z,88.79
2023-02-21T15:30:22.648Z,89.50
2023-02-21T15:33:14.514Z,89.96
2023-02-21T15:35:45.757Z,90.46
2023-02-21T15:38:36.052Z,91.72
2023-02-21T15:41:16.265Z,92.01
2023-02-21T15:43:49.130Z,92.89
2023-02-21T15:46:24.690Z,92.79
2023-02-21T15:48:51.853Z,93.32
2023-02-21T15:51:18.770Z,93.38
2023-02-21T15:54:08.848Z,93.82
2023-02-21T15:56:35.729Z,94.57
2023-02-21T15:59:23.136Z,94.98
2023-02-21T16:02:11.709Z,95.30
2023-02-21T16:04:39.888Z,96.50
2023-02-21T16:07:08.450Z,96.69
2023-02-21T16:09:35.919Z,97.39
2023-02-21T16:12:15.121Z,98.32
2023-02-21T16:14:46.879Z,98.61
2023-02-21T16:17:13.644Z,97.97
2023-02-21T16:19:41.392Z,98.70
2023-02-21T16:22:20.371Z,98.41
2023-02-21T16:24:47.194Z,99.34
2023-02-21T16:27:15.879Z,99.25
2023-02-21T16:29:42.715Z,99.33
2023-02-21T16:32:18.726Z,100.00
2023-02-21T16:34:45.715Z,100.00
2023-02-21T16:37:14.032Z,100.00
2023-02-21T16:39:41.697Z,100.00
2023-02-21T16:42:08.612Z,100.00
2023-02-21T16:44:35.477Z,100.00
2023-02-21T16:47:02.291Z,100.00
2023-02-21T16:49:29.631Z,100.00
2023-02-21T16:51:56.451Z,100.00
2023-02-21T16:54:23.231Z,99.15
2023-02-21T16:56:51.574Z,98.48
2023-02-21T16:59:19.816Z,98.51
2023-02-21T17:01:46.819Z,98.65
2023-02-21T17:04:27.149Z,97.39
2023-02-21T17:06:58.915Z,98.17
2023-02-21T17:09:27.833Z,97.28
2023-02-21T17:11:54.897Z,97.10
2023-02-21T17:14:21.855Z,97.78
2023-02-21T17:16:48.819Z,97.39
2023-02-21T17:19:16.760Z,97.01
2023-02-21T17:21:43.660Z,97.20
2023-02-21T17:24:11.674Z,95.46
2023-02-21T17:26:38.572Z,96.66
2023-02-21T17:29:05.678Z,97.03
2023-02-21T17:31:32.582Z,97.32
2023-02-21T17:33:59.592Z,97.66
2023-02-21T17:36:27.233Z,97.33
2023-02-21T17:38:54.492Z,98.65
2023-02-21T17:41:21.602Z,99.36
2023-02-21T17:43:48.732Z,99.34
2023-02-21T17:46:17.188Z,99.81
2023-02-21T17:48:44.315Z,100.00
2023-02-21T17:51:23.911Z,100.00
2023-02-21T17:53:51.364Z,100.00
2023-02-21T17:56:22.272Z,100.00
2023-02-21T17:58:49.225Z,100.00
2023-02-21T18:01:18.730Z,98.97
2023-02-21T18:03:48.918Z,100.00
2023-02-21T18:06:15.920Z,99.38
2023-02-21T18:08:45.017Z,98.81
2023-02-21T18:11:13.717Z,98.40
2023-02-21T18:13:40.957Z,99.59
2023-02-21T18:16:08.299Z,99.08
2023-02-21T18:18:35.196Z,99.54
2023-02-21T18:21:02.673Z,99.09
2023-02-21T18:23:30.488Z,100.00
2023-02-21T18:25:57.737Z,100.00
2023-02-21T18:28:24.697Z,100.00
2023-02-21T18:30:52.024Z,100.00
2023-02-21T18:33:18.983Z,100.00
2023-02-21T18:35:45.854Z,100.00
2023-02-21T18:38:13.261Z,100.00
2023-02-21T18:40:45.121Z,100.00
2023-02-21T18:43:18.156Z,100.00
2023-02-21T18:45:45.138Z,100.00
2023-02-21T18:48:12.001Z,100.00
2023-02-21T18:50:38.864Z,100.00
2023-02-21T18:53:05.961Z,100.00
2023-02-21T18:55:32.920Z,100.00
2023-02-21T18:57:59.895Z,100.00
2023-02-21T19:00:27.062Z,100.00
2023-02-21T19:02:53.883Z,100.00
2023-02-21T19:05:22.066Z,100.00
2023-02-21T19:07:48.865Z,100.00
2023-02-21T19:10:17.942Z,100.00
2023-02-21T19:12:44.961Z,100.00
2023-02-21T19:15:11.828Z,99.81
2023-02-21T19:17:38.608Z,100.00
2023-02-21T19:20:14.780Z,100.00
2023-02-21T19:22:41.549Z,100.00
2023-02-21T19:25:08.550Z,99.33
2023-02-21T19:27:35.396Z,99.85
2023-02-21T19:30:02.325Z,99.23
2023-02-21T19:32:29.330Z,99.08
2023-02-21T19:34:56.216Z,100.00
2023-02-21T19:37:24.216Z,100.00
2023-02-21T19:39:51.057Z,99.60
2023-02-21T19:42:17.864Z,99.33
2023-02-21T19:44:44.721Z,98.64
2023-02-21T19:47:11.518Z,99.88
2023-02-21T19:49:38.376Z,99.27
2023-02-21T19:52:05.696Z,99.17
2023-02-21T19:54:32.621Z,99.83
2023-02-21T19:56:59.857Z,99.43
2023-02-21T19:59:27.047Z,99.90
2023-02-21T20:01:54.413Z,99.44
2023-02-21T20:04:21.766Z,99.85
2023-02-21T20:06:49.920Z,100.00
2023-02-21T20:09:17.045Z,100.00
2023-02-21T20:11:43.893Z,100.00
2023-02-21T20:14:11.252Z,100.00
2023-02-21T20:16:42.378Z,100.00
2023-02-21T20:19:09.742Z,100.00
2023-02-21T20:21:36.598Z,100.00
2023-02-21T20:24:03.837Z,100.00
2023-02-21T20:26:30.677Z,100.00
2023-02-21T20:28:57.560Z,100.00
2023-02-21T20:31:27.014Z,100.00
2023-02-21T20:33:53.865Z,100.00
2023-02-21T20:36:28.704Z,100.00
2023-02-21T20:38:55.582Z,100.00
2023-02-21T20:41:22.419Z,100.00
2023-02-21T20:43:49.241Z,100.00
2023-02-21T20:46:21.475Z,100.00
2023-02-21T20:48:49.024Z,100.00
2023-02-21T20:51:16.279Z,100.00
2023-02-21T20:53:46.219Z,100.00
2023-02-21T20:56:13.821Z,100.00
2023-02-21T20:58:40.641Z,100.00
2023-02-21T21:01:08.323Z,100.00
2023-02-21T21:03:36.012Z,100.00
2023-02-21T21:06:03.210Z,100.00
2023-02-21T21:08:30.095Z,100.00
2023-02-21T21:10:57.537Z,100.00
2023-02-21T21:13:24.356Z,100.00
2023-02-21T21:15:51.215Z,100.00
2023-02-21T21:18:18.113Z,100.00
2023-02-21T21:20:44.886Z,100.00
2023-02-21T21:23:11.711Z,100.00
2023-02-21T21:25:38.503Z,100.00
2023-02-21T21:28:05.608Z,100.00
2023-02-21T21:30:33.237Z,100.00
2023-02-21T21:33:00.863Z,100.00
2023-02-21T21:35:30.199Z,100.00
2023-02-21T21:37:57.957Z,100.00
2023-02-21T21:40:26.889Z,100.00
2023-02-21T21:42:53.858Z,100.00
2023-02-21T21:45:25.700Z,100.00
2023-02-21T21:47:53.712Z,100.00
2023-02-21T21:50:21.167Z,100.00
2023-02-21T21:52:57.518Z,100.00
2023-02-21T21:55:27.114Z,100.00
2023-02-21T21:57:54.090Z,100.00
2023-02-21T22:00:23.559Z,100.00
2023-02-21T22:02:51.847Z,100.00
2023-02-21T22:05:18.798Z,100.00
2023-02-21T22:07:45.705Z,100.00
2023-02-21T22:10:12.794Z,100.00
2023-02-21T22:12:39.658Z,100.00
2023-02-21T22:15:10.647Z,100.00
2023-02-21T22:17:38.035Z,100.00
2023-02-21T22:20:17.104Z,100.00
2023-02-21T22:22:46.380Z,100.00
2023-02-21T22:25:13.699Z,100.00
2023-02-21T22:27:40.674Z,100.00
2023-02-21T22:30:09.299Z,100.00
2023-02-21T22:32:36.926Z,100.00
2023-02-21T22:35:04.072Z,100.00
2023-02-21T22:37:30.911Z,100.00
2023-02-21T22:39:57.728Z,100.00
2023-02-21T22:42:24.533Z,100.00
2023-02-21T22:44:51.452Z,100.00
2023-02-21T22:47:19.158Z,100.00
2023-02-21T22:49:46.530Z,100.00
2023-02-21T22:52:13.371Z,100.00
2023-02-21T22:54:40.191Z,100.00
2023-02-21T22:57:07.368Z,100.00
2023-02-21T22:59:35.641Z,100.00
2023-02-21T23:02:03.241Z,100.00
2023-02-21T23:04:37.469Z,100.00
2023-02-21T23:07:04.727Z,100.00
2023-02-21T23:09:36.938Z,100.00
2023-02-21T23:12:03.972Z,100.00
2023-02-21T23:14:36.723Z,100.00
2023-02-21T23:17:03.687Z,100.00
2023-02-21T23:19:32.191Z,100.00
2023-02-21T23:21:59.107Z,100.00
2023-02-21T23:24:26.195Z,100.00
2023-02-21T23:26:54.917Z,100.00
2023-02-21T23:29:26.316Z,100.00
2023-02-21T23:31:54.872Z,100.00
2023-02-21T23:34:22.064Z,100.00
2023-02-21T23:36:49.300Z,100.00
2023-02-21T23:39:16.213Z,100.00
2023-02-21T23:41:43.389Z,100.00
2023-02-21T23:44:11.490Z,100.00
2023-02-21T23:46:42.648Z,100.00
2023-02-21T23:49:15.670Z,100.00
2023-02-21T23:51:43.546Z,100.00
2023-02-21T23:54:10.479Z,100.00
2023-02-21T23:56:37.297Z,100.00
2023-02-21T23:59:06.121Z,100.00
